Clarks Summit, PA (18411)

2:39 PM EDT on May 06, 2016 (GMT -0400)
Clarks Summit | | Change Station

Elev 1404 ft 41.49 °N, 75.71 °W | Updated 4 seconds ago

Overcast
Overcast
50.9 °F
Feels Like 50.9 °F
N
0.9
Wind Variable Wind from SW
Gusts 2.5 mph

Today
High -- | Low -- °F
--% Chance of Precip.
Yesterday
High -- | Low -- °F
Precip. -- in
Pressure 29.71 in
Visibility 8.0 miles
Clouds Mostly Cloudy 1100 ft
Overcast 1500 ft
Dew Point 51 °F
Humidity 99%
Rainfall 0.43 in
Snow Depth Not available.
5:52 AM 8:06 PM
Waning Crescent, 0% visible
METAR KAVP 061754Z 03010KT 8SM BKN011 OVC015 11/09 A2971 RMK AO2 RAE00B04E21 SLP060 P0000 60039 T01110089 10111 20094 58003
Pressure 29.71 in
Visibility 8.0 miles
Clouds Mostly Cloudy 1100 ft
Overcast 1500 ft
Dew Point 51 °F
Humidity 99%
Rainfall 0.43 in
Snow Depth Not available.
5:52 AM 8:06 PM
Waning Crescent, 0% visible
METAR KAVP 061754Z 03010KT 8SM BKN011 OVC015 11/09 A2971 RMK AO2 RAE00B04E21 SLP060 P0000 60039 T01110089 10111 20094 58003

10-Day Weather Forecast

Almanac

Astronomy

May. 06, 2016 Rise Set
Actual Time
Civil Twilight
Nautical Twilight
Astronomical Twilight
Moon
Length of Visible Light
Length of Day
Tomorrow will be .
, % of the Moon is Illuminated

Today's Extremes

State Highs State Lows

Community

WunderPhotos

Upload Photos

1,910,157 photos uploaded!

WunderBlog® & News

Nearby

Air Quality

  Air Quality AQ Index Pollutant
Not available.

Snow Depth

Station Depth Elevation

Earthquake Activity

City Distance Mag. Time & Date
Minimum magnitude displayed is 2.5.

Coastal Water Temperatures

Place Temperature

Stations

Nearby Weather Stations

Station Location Temp. Windchill Dew Point Humidity Wind Precip. Elev Updated Type
                   

Watches & Warnings

There are currently no watches in effect.